sensor_id;sensor_type;location;lat;lon;timestamp;P1;durP1;ratioP1;P2;durP2;ratioP2
20014;SDS011;61787;42.022;23.078;2023-07-13T00:00:22;9.35;;;6.50;;
20014;SDS011;61787;42.022;23.078;2023-07-13T00:01:24;8.82;;;5.95;;
20014;SDS011;61787;42.022;23.078;2023-07-13T00:02:26;7.47;;;6.07;;
20014;SDS011;61787;42.022;23.078;2023-07-13T00:03:28;8.75;;;6.15;;
20014;SDS011;61787;42.022;23.078;2023-07-13T00:04:36;7.07;;;5.90;;
20014;SDS011;61787;42.022;23.078;2023-07-13T00:05:38;6.85;;;6.03;;
20014;SDS011;61787;42.022;23.078;2023-07-13T00:06:39;8.45;;;6.40;;
20014;SDS011;61787;42.022;23.078;2023-07-13T00:07:41;8.65;;;6.28;;
20014;SDS011;61787;42.022;23.078;2023-07-13T00:08:43;9.32;;;6.38;;
20014;SDS011;61787;42.022;23.078;2023-07-13T00:09:44;9.43;;;7.20;;
20014;SDS011;61787;42.022;23.078;2023-07-13T00:10:46;10.40;;;6.57;;
20014;SDS011;61787;42.022;23.078;2023-07-13T00:11:51;8.70;;;6.90;;
20014;SDS011;61787;42.022;23.078;2023-07-13T00:12:56;10.85;;;7.47;;
20014;SDS011;61787;42.022;23.078;2023-07-13T00:13:58;8.15;;;7.30;;
20014;SDS011;61787;42.022;23.078;2023-07-13T00:15:00;9.05;;;6.78;;
20014;SDS011;61787;42.022;23.078;2023-07-13T00:16:04;9.90;;;7.20;;
20014;SDS011;61787;42.022;23.078;2023-07-13T00:17:06;10.38;;;6.95;;
20014;SDS011;61787;42.022;23.078;2023-07-13T00:18:08;10.23;;;7.25;;
20014;SDS011;61787;42.022;23.078;2023-07-13T00:19:10;9.05;;;6.68;;
20014;SDS011;61787;42.022;23.078;2023-07-13T00:20:13;7.80;;;7.05;;
20014;SDS011;61787;42.022;23.078;2023-07-13T00:21:14;9.23;;;7.05;;
20014;SDS011;61787;42.022;23.078;2023-07-13T00:22:16;8.82;;;6.47;;
20014;SDS011;61787;42.022;23.078;2023-07-13T00:23:19;10.60;;;7.20;;
20014;SDS011;61787;42.022;23.078;2023-07-13T00:24:20;7.30;;;6.50;;
20014;SDS011;61787;42.022;23.078;2023-07-13T00:25:25;8.50;;;6.60;;
20014;SDS011;61787;42.022;23.078;2023-07-13T00:26:29;8.23;;;7.13;;
20014;SDS011;61787;42.022;23.078;2023-07-13T00:27:33;9.48;;;7.22;;
20014;SDS011;61787;42.022;23.078;2023-07-13T00:28:35;10.80;;;7.40;;
20014;SDS011;61787;42.022;23.078;2023-07-13T00:29:37;11.25;;;7.63;;
20014;SDS011;61787;42.022;23.078;2023-07-13T00:30:39;10.63;;;7.38;;
20014;SDS011;61787;42.022;23.078;2023-07-13T00:31:41;8.90;;;6.55;;
20014;SDS011;61787;42.022;23.078;2023-07-13T00:32:43;13.35;;;7.22;;
20014;SDS011;61787;42.022;23.078;2023-07-13T00:33:45;10.07;;;7.35;;
20014;SDS011;61787;42.022;23.078;2023-07-13T00:34:46;8.20;;;6.63;;
20014;SDS011;61787;42.022;23.078;2023-07-13T00:35:48;10.07;;;7.57;;
20014;SDS011;61787;42.022;23.078;2023-07-13T00:36:51;11.13;;;7.40;;
20014;SDS011;61787;42.022;23.078;2023-07-13T00:37:52;11.10;;;6.72;;
20014;SDS011;61787;42.022;23.078;2023-07-13T00:38:54;8.35;;;6.72;;
20014;SDS011;61787;42.022;23.078;2023-07-13T00:39:55;12.20;;;7.45;;
20014;SDS011;61787;42.022;23.078;2023-07-13T00:40:57;9.68;;;7.10;;
20014;SDS011;61787;42.022;23.078;2023-07-13T00:42:00;7.75;;;6.95;;
20014;SDS011;61787;42.022;23.078;2023-07-13T00:43:02;8.75;;;7.18;;
20014;SDS011;61787;42.022;23.078;2023-07-13T00:44:08;9.80;;;7.60;;
20014;SDS011;61787;42.022;23.078;2023-07-13T00:47:23;8.90;;;7.10;;
20014;SDS011;61787;42.022;23.078;2023-07-13T00:48:26;10.45;;;7.38;;
20014;SDS011;61787;42.022;23.078;2023-07-13T00:49:31;11.10;;;6.65;;
20014;SDS011;61787;42.022;23.078;2023-07-13T00:50:34;8.05;;;6.85;;
20014;SDS011;61787;42.022;23.078;2023-07-13T00:51:37;11.60;;;6.93;;
20014;SDS011;61787;42.022;23.078;2023-07-13T00:52:43;8.77;;;7.20;;
20014;SDS011;61787;42.022;23.078;2023-07-13T00:53:47;8.45;;;7.13;;
20014;SDS011;61787;42.022;23.078;2023-07-13T00:54:49;8.40;;;6.93;;
20014;SDS011;61787;42.022;23.078;2023-07-13T00:55:51;8.48;;;6.97;;
20014;SDS011;61787;42.022;23.078;2023-07-13T00:56:57;10.27;;;7.25;;
20014;SDS011;61787;42.022;23.078;2023-07-13T00:58:03;10.82;;;7.43;;
20014;SDS011;61787;42.022;23.078;2023-07-13T00:59:06;8.82;;;7.20;;
20014;SDS011;61787;42.022;23.078;2023-07-13T01:00:10;10.52;;;7.63;;
20014;SDS011;61787;42.022;23.078;2023-07-13T01:01:13;11.45;;;7.47;;
20014;SDS011;61787;42.022;23.078;2023-07-13T01:02:15;8.95;;;6.78;;
20014;SDS011;61787;42.022;23.078;2023-07-13T01:03:17;8.93;;;7.78;;
20014;SDS011;61787;42.022;23.078;2023-07-13T01:04:20;10.25;;;7.75;;
20014;SDS011;61787;42.022;23.078;2023-07-13T01:05:24;7.82;;;6.78;;
20014;SDS011;61787;42.022;23.078;2023-07-13T01:06:27;9.60;;;7.25;;
20014;SDS011;61787;42.022;23.078;2023-07-13T01:07:29;8.35;;;7.10;;
20014;SDS011;61787;42.022;23.078;2023-07-13T01:08:30;8.45;;;7.05;;
20014;SDS011;61787;42.022;23.078;2023-07-13T01:09:32;8.77;;;7.28;;
20014;SDS011;61787;42.022;23.078;2023-07-13T01:10:34;9.27;;;6.95;;
20014;SDS011;61787;42.022;23.078;2023-07-13T01:11:40;9.85;;;6.70;;
20014;SDS011;61787;42.022;23.078;2023-07-13T01:12:42;9.02;;;6.82;;
20014;SDS011;61787;42.022;23.078;2023-07-13T01:13:44;12.13;;;7.07;;
20014;SDS011;61787;42.022;23.078;2023-07-13T01:14:46;7.60;;;6.28;;
20014;SDS011;61787;42.022;23.078;2023-07-13T01:15:48;9.75;;;7.32;;
20014;SDS011;61787;42.022;23.078;2023-07-13T01:16:52;9.10;;;7.15;;
20014;SDS011;61787;42.022;23.078;2023-07-13T01:17:54;8.32;;;7.43;;
20014;SDS011;61787;42.022;23.078;2023-07-13T01:18:57;9.05;;;7.25;;
20014;SDS011;61787;42.022;23.078;2023-07-13T01:20:02;8.43;;;7.45;;
20014;SDS011;61787;42.022;23.078;2023-07-13T01:21:06;7.82;;;6.97;;
20014;SDS011;61787;42.022;23.078;2023-07-13T01:22:09;7.05;;;6.35;;
20014;SDS011;61787;42.022;23.078;2023-07-13T01:23:16;12.38;;;7.00;;
20014;SDS011;61787;42.022;23.078;2023-07-13T01:24:18;9.43;;;7.13;;
20014;SDS011;61787;42.022;23.078;2023-07-13T01:25:19;9.05;;;7.00;;
20014;SDS011;61787;42.022;23.078;2023-07-13T01:26:21;11.07;;;7.30;;
20014;SDS011;61787;42.022;23.078;2023-07-13T01:27:24;9.82;;;7.70;;
20014;SDS011;61787;42.022;23.078;2023-07-13T01:28:27;10.43;;;6.97;;
20014;SDS011;61787;42.022;23.078;2023-07-13T01:29:30;10.00;;;7.05;;
20014;SDS011;61787;42.022;23.078;2023-07-13T01:30:32;9.13;;;7.38;;
20014;SDS011;61787;42.022;23.078;2023-07-13T01:31:34;9.85;;;7.03;;
20014;SDS011;61787;42.022;23.078;2023-07-13T01:32:36;8.93;;;6.88;;
20014;SDS011;61787;42.022;23.078;2023-07-13T01:33:39;8.38;;;7.40;;
20014;SDS011;61787;42.022;23.078;2023-07-13T01:34:41;11.60;;;7.38;;
20014;SDS011;61787;42.022;23.078;2023-07-13T01:35:46;10.38;;;7.15;;
20014;SDS011;61787;42.022;23.078;2023-07-13T01:36:48;10.40;;;6.70;;
20014;SDS011;61787;42.022;23.078;2023-07-13T01:37:49;10.32;;;7.60;;
20014;SDS011;61787;42.022;23.078;2023-07-13T01:38:52;8.40;;;6.93;;
20014;SDS011;61787;42.022;23.078;2023-07-13T01:39:53;8.77;;;6.90;;
20014;SDS011;61787;42.022;23.078;2023-07-13T01:40:55;10.70;;;6.80;;
20014;SDS011;61787;42.022;23.078;2023-07-13T01:41:56;9.20;;;6.55;;
20014;SDS011;61787;42.022;23.078;2023-07-13T01:42:58;11.20;;;7.32;;
20014;SDS011;61787;42.022;23.078;2023-07-13T01:44:00;9.93;;;7.03;;
20014;SDS011;61787;42.022;23.078;2023-07-13T01:45:02;11.05;;;6.50;;
20014;SDS011;61787;42.022;23.078;2023-07-13T01:46:04;11.57;;;7.18;;
20014;SDS011;61787;42.022;23.078;2023-07-13T01:47:23;8.15;;;7.25;;
20014;SDS011;61787;42.022;23.078;2023-07-13T01:48:27;10.52;;;6.75;;
20014;SDS011;61787;42.022;23.078;2023-07-13T01:49:29;7.75;;;6.50;;
20014;SDS011;61787;42.022;23.078;2023-07-13T01:50:30;8.63;;;7.30;;
20014;SDS011;61787;42.022;23.078;2023-07-13T01:51:32;11.15;;;6.55;;
20014;SDS011;61787;42.022;23.078;2023-07-13T01:52:34;8.82;;;6.68;;
20014;SDS011;61787;42.022;23.078;2023-07-13T01:53:35;10.10;;;7.22;;
20014;SDS011;61787;42.022;23.078;2023-07-13T01:54:37;9.55;;;7.18;;
20014;SDS011;61787;42.022;23.078;2023-07-13T01:55:39;8.00;;;7.03;;
20014;SDS011;61787;42.022;23.078;2023-07-13T01:56:41;7.88;;;7.00;;
20014;SDS011;61787;42.022;23.078;2023-07-13T01:57:43;9.45;;;7.15;;
20014;SDS011;61787;42.022;23.078;2023-07-13T01:58:45;9.80;;;7.20;;
20014;SDS011;61787;42.022;23.078;2023-07-13T01:59:47;10.07;;;7.53;;
20014;SDS011;61787;42.022;23.078;2023-07-13T02:00:49;10.25;;;7.32;;
20014;SDS011;61787;42.022;23.078;2023-07-13T02:01:52;9.38;;;6.88;;
20014;SDS011;61787;42.022;23.078;2023-07-13T02:02:54;9.88;;;6.95;;
20014;SDS011;61787;42.022;23.078;2023-07-13T02:03:56;7.55;;;6.75;;
20014;SDS011;61787;42.022;23.078;2023-07-13T02:04:57;10.52;;;6.88;;
20014;SDS011;61787;42.022;23.078;2023-07-13T02:05:59;8.07;;;7.05;;
20014;SDS011;61787;42.022;23.078;2023-07-13T02:07:01;9.05;;;7.20;;
20014;SDS011;61787;42.022;23.078;2023-07-13T02:08:02;11.00;;;7.50;;
20014;SDS011;61787;42.022;23.078;2023-07-13T02:09:04;8.88;;;7.00;;
20014;SDS011;61787;42.022;23.078;2023-07-13T02:10:06;9.80;;;7.28;;
20014;SDS011;61787;42.022;23.078;2023-07-13T02:11:09;10.02;;;7.13;;
20014;SDS011;61787;42.022;23.078;2023-07-13T02:12:12;8.70;;;7.28;;
20014;SDS011;61787;42.022;23.078;2023-07-13T02:13:13;9.00;;;7.65;;
20014;SDS011;61787;42.022;23.078;2023-07-13T02:14:15;8.30;;;7.03;;
20014;SDS011;61787;42.022;23.078;2023-07-13T02:15:17;10.70;;;7.53;;
20014;SDS011;61787;42.022;23.078;2023-07-13T02:16:19;9.07;;;7.20;;
20014;SDS011;61787;42.022;23.078;2023-07-13T02:17:21;10.32;;;8.10;;
20014;SDS011;61787;42.022;23.078;2023-07-13T02:18:23;10.23;;;7.68;;
20014;SDS011;61787;42.022;23.078;2023-07-13T02:19:24;11.45;;;7.70;;
20014;SDS011;61787;42.022;23.078;2023-07-13T02:20:26;10.80;;;7.35;;
20014;SDS011;61787;42.022;23.078;2023-07-13T02:21:28;11.18;;;7.47;;
20014;SDS011;61787;42.022;23.078;2023-07-13T02:22:30;12.60;;;7.93;;
20014;SDS011;61787;42.022;23.078;2023-07-13T02:23:32;11.52;;;7.63;;
20014;SDS011;61787;42.022;23.078;2023-07-13T02:24:33;9.65;;;7.55;;
20014;SDS011;61787;42.022;23.078;2023-07-13T02:25:35;10.38;;;7.47;;
20014;SDS011;61787;42.022;23.078;2023-07-13T02:26:37;10.80;;;8.00;;
20014;SDS011;61787;42.022;23.078;2023-07-13T02:27:38;11.32;;;7.97;;
20014;SDS011;61787;42.022;23.078;2023-07-13T02:28:40;11.02;;;7.45;;
20014;SDS011;61787;42.022;23.078;2023-07-13T02:29:42;12.10;;;8.35;;
20014;SDS011;61787;42.022;23.078;2023-07-13T02:30:43;9.18;;;6.95;;
20014;SDS011;61787;42.022;23.078;2023-07-13T02:31:45;10.70;;;7.93;;
20014;SDS011;61787;42.022;23.078;2023-07-13T02:32:47;10.52;;;8.40;;
20014;SDS011;61787;42.022;23.078;2023-07-13T02:33:48;11.48;;;7.95;;
20014;SDS011;61787;42.022;23.078;2023-07-13T02:34:50;11.63;;;7.88;;
20014;SDS011;61787;42.022;23.078;2023-07-13T02:35:52;8.93;;;7.82;;
20014;SDS011;61787;42.022;23.078;2023-07-13T02:36:53;10.02;;;8.10;;
20014;SDS011;61787;42.022;23.078;2023-07-13T02:37:55;9.32;;;8.05;;
20014;SDS011;61787;42.022;23.078;2023-07-13T02:38:57;8.75;;;7.75;;
20014;SDS011;61787;42.022;23.078;2023-07-13T02:40:02;9.00;;;7.20;;
20014;SDS011;61787;42.022;23.078;2023-07-13T02:41:09;9.73;;;7.22;;
20014;SDS011;61787;42.022;23.078;2023-07-13T02:42:11;9.27;;;7.68;;
20014;SDS011;61787;42.022;23.078;2023-07-13T02:43:13;12.13;;;7.90;;
20014;SDS011;61787;42.022;23.078;2023-07-13T02:44:15;11.57;;;7.40;;
20014;SDS011;61787;42.022;23.078;2023-07-13T02:45:17;11.95;;;7.70;;
20014;SDS011;61787;42.022;23.078;2023-07-13T02:46:18;10.63;;;8.15;;
20014;SDS011;61787;42.022;23.078;2023-07-13T02:47:21;9.45;;;8.30;;
20014;SDS011;61787;42.022;23.078;2023-07-13T02:48:22;12.63;;;7.65;;
20014;SDS011;61787;42.022;23.078;2023-07-13T02:49:24;7.97;;;7.22;;
20014;SDS011;61787;42.022;23.078;2023-07-13T02:50:26;8.45;;;7.65;;
20014;SDS011;61787;42.022;23.078;2023-07-13T02:51:27;10.40;;;8.00;;
20014;SDS011;61787;42.022;23.078;2023-07-13T02:52:29;15.65;;;7.65;;
20014;SDS011;61787;42.022;23.078;2023-07-13T02:53:31;9.70;;;7.75;;
20014;SDS011;61787;42.022;23.078;2023-07-13T02:54:33;10.45;;;7.50;;
20014;SDS011;61787;42.022;23.078;2023-07-13T02:55:34;9.80;;;7.47;;
20014;SDS011;61787;42.022;23.078;2023-07-13T02:56:36;9.65;;;7.53;;
20014;SDS011;61787;42.022;23.078;2023-07-13T02:57:40;10.82;;;8.15;;
20014;SDS011;61787;42.022;23.078;2023-07-13T02:58:42;12.30;;;7.88;;
20014;SDS011;61787;42.022;23.078;2023-07-13T02:59:43;12.60;;;7.85;;
20014;SDS011;61787;42.022;23.078;2023-07-13T03:00:46;13.27;;;7.75;;
20014;SDS011;61787;42.022;23.078;2023-07-13T03:01:48;9.40;;;7.68;;
20014;SDS011;61787;42.022;23.078;2023-07-13T03:02:49;9.07;;;7.53;;
20014;SDS011;61787;42.022;23.078;2023-07-13T03:03:52;9.30;;;7.45;;
20014;SDS011;61787;42.022;23.078;2023-07-13T03:04:54;9.27;;;7.13;;
20014;SDS011;61787;42.022;23.078;2023-07-13T03:06:00;12.05;;;7.85;;
20014;SDS011;61787;42.022;23.078;2023-07-13T03:07:04;12.32;;;7.68;;
20014;SDS011;61787;42.022;23.078;2023-07-13T03:08:06;8.35;;;7.50;;
20014;SDS011;61787;42.022;23.078;2023-07-13T03:09:08;10.57;;;7.53;;
20014;SDS011;61787;42.022;23.078;2023-07-13T03:10:09;11.30;;;7.43;;
20014;SDS011;61787;42.022;23.078;2023-07-13T03:11:15;9.93;;;7.57;;
20014;SDS011;61787;42.022;23.078;2023-07-13T03:12:19;9.82;;;7.88;;
20014;SDS011;61787;42.022;23.078;2023-07-13T03:13:21;11.10;;;7.57;;
20014;SDS011;61787;42.022;23.078;2023-07-13T03:14:23;11.32;;;7.88;;
20014;SDS011;61787;42.022;23.078;2023-07-13T03:15:24;11.00;;;7.45;;
20014;SDS011;61787;42.022;23.078;2023-07-13T03:16:26;14.27;;;7.97;;
20014;SDS011;61787;42.022;23.078;2023-07-13T03:17:28;8.73;;;7.60;;
20014;SDS011;61787;42.022;23.078;2023-07-13T03:18:29;9.32;;;8.05;;
20014;SDS011;61787;42.022;23.078;2023-07-13T03:19:31;10.10;;;7.78;;
20014;SDS011;61787;42.022;23.078;2023-07-13T03:20:33;10.82;;;7.20;;
20014;SDS011;61787;42.022;23.078;2023-07-13T03:21:35;8.48;;;7.18;;
20014;SDS011;61787;42.022;23.078;2023-07-13T03:22:37;12.82;;;8.57;;
20014;SDS011;61787;42.022;23.078;2023-07-13T03:23:39;13.73;;;7.82;;
20014;SDS011;61787;42.022;23.078;2023-07-13T03:24:41;9.60;;;8.00;;
20014;SDS011;61787;42.022;23.078;2023-07-13T03:25:43;9.93;;;7.65;;
20014;SDS011;61787;42.022;23.078;2023-07-13T03:26:45;10.32;;;7.85;;
20014;SDS011;61787;42.022;23.078;2023-07-13T03:27:48;11.98;;;7.88;;
20014;SDS011;61787;42.022;23.078;2023-07-13T03:28:50;10.05;;;7.70;;
20014;SDS011;61787;42.022;23.078;2023-07-13T03:29:52;10.60;;;8.32;;
20014;SDS011;61787;42.022;23.078;2023-07-13T03:31:03;12.02;;;8.40;;
20014;SDS011;61787;42.022;23.078;2023-07-13T03:32:10;11.93;;;8.30;;
20014;SDS011;61787;42.022;23.078;2023-07-13T03:33:13;16.15;;;8.15;;
20014;SDS011;61787;42.022;23.078;2023-07-13T03:34:15;11.85;;;7.45;;
20014;SDS011;61787;42.022;23.078;2023-07-13T03:35:17;13.75;;;7.63;;
20014;SDS011;61787;42.022;23.078;2023-07-13T03:36:20;13.10;;;7.95;;
20014;SDS011;61787;42.022;23.078;2023-07-13T03:37:24;14.77;;;8.10;;
20014;SDS011;61787;42.022;23.078;2023-07-13T03:38:26;12.05;;;8.13;;
20014;SDS011;61787;42.022;23.078;2023-07-13T03:39:28;10.32;;;7.57;;
20014;SDS011;61787;42.022;23.078;2023-07-13T03:40:30;14.57;;;8.55;;
20014;SDS011;61787;42.022;23.078;2023-07-13T03:41:31;8.23;;;7.00;;
20014;SDS011;61787;42.022;23.078;2023-07-13T03:42:33;11.82;;;8.00;;
20014;SDS011;61787;42.022;23.078;2023-07-13T03:43:35;9.48;;;8.48;;
20014;SDS011;61787;42.022;23.078;2023-07-13T03:44:36;9.68;;;7.95;;
20014;SDS011;61787;42.022;23.078;2023-07-13T03:45:38;13.05;;;8.77;;
20014;SDS011;61787;42.022;23.078;2023-07-13T03:46:40;10.43;;;8.57;;
20014;SDS011;61787;42.022;23.078;2023-07-13T03:47:42;10.40;;;7.65;;
20014;SDS011;61787;42.022;23.078;2023-07-13T03:48:44;8.57;;;7.50;;
20014;SDS011;61787;42.022;23.078;2023-07-13T03:49:47;20.67;;;8.43;;
20014;SDS011;61787;42.022;23.078;2023-07-13T03:50:48;11.80;;;8.00;;
20014;SDS011;61787;42.022;23.078;2023-07-13T03:51:53;13.85;;;8.60;;
20014;SDS011;61787;42.022;23.078;2023-07-13T03:52:54;15.75;;;7.70;;
20014;SDS011;61787;42.022;23.078;2023-07-13T03:53:57;11.02;;;7.72;;
20014;SDS011;61787;42.022;23.078;2023-07-13T03:54:58;13.07;;;8.00;;
20014;SDS011;61787;42.022;23.078;2023-07-13T03:56:00;12.25;;;8.20;;
20014;SDS011;61787;42.022;23.078;2023-07-13T03:57:02;16.05;;;7.75;;
20014;SDS011;61787;42.022;23.078;2023-07-13T03:59:27;15.02;;;8.10;;
20014;SDS011;61787;42.022;23.078;2023-07-13T04:00:29;9.75;;;7.22;;
20014;SDS011;61787;42.022;23.078;2023-07-13T04:01:31;11.70;;;7.07;;
20014;SDS011;61787;42.022;23.078;2023-07-13T04:02:33;10.20;;;7.15;;
20014;SDS011;61787;42.022;23.078;2023-07-13T04:03:34;8.70;;;7.25;;
20014;SDS011;61787;42.022;23.078;2023-07-13T04:04:37;9.30;;;7.25;;
20014;SDS011;61787;42.022;23.078;2023-07-13T04:05:42;10.18;;;7.70;;
20014;SDS011;61787;42.022;23.078;2023-07-13T04:06:43;9.70;;;7.63;;
20014;SDS011;61787;42.022;23.078;2023-07-13T04:07:45;12.35;;;7.72;;
20014;SDS011;61787;42.022;23.078;2023-07-13T04:08:51;10.30;;;7.30;;
20014;SDS011;61787;42.022;23.078;2023-07-13T04:09:55;9.13;;;6.68;;
20014;SDS011;61787;42.022;23.078;2023-07-13T04:10:57;11.65;;;7.95;;
20014;SDS011;61787;42.022;23.078;2023-07-13T04:11:59;10.45;;;7.47;;
20014;SDS011;61787;42.022;23.078;2023-07-13T04:13:01;10.63;;;7.90;;
20014;SDS011;61787;42.022;23.078;2023-07-13T04:14:03;11.82;;;7.65;;
20014;SDS011;61787;42.022;23.078;2023-07-13T04:15:05;9.13;;;7.57;;
20014;SDS011;61787;42.022;23.078;2023-07-13T04:16:07;16.80;;;8.13;;
20014;SDS011;61787;42.022;23.078;2023-07-13T04:17:09;9.18;;;7.60;;
20014;SDS011;61787;42.022;23.078;2023-07-13T04:18:10;11.10;;;7.50;;
20014;SDS011;61787;42.022;23.078;2023-07-13T04:19:12;10.70;;;8.10;;
20014;SDS011;61787;42.022;23.078;2023-07-13T04:20:14;11.80;;;8.45;;
20014;SDS011;61787;42.022;23.078;2023-07-13T04:21:16;12.25;;;8.35;;
20014;SDS011;61787;42.022;23.078;2023-07-13T04:22:17;10.73;;;8.07;;
20014;SDS011;61787;42.022;23.078;2023-07-13T04:23:19;12.73;;;8.43;;
20014;SDS011;61787;42.022;23.078;2023-07-13T04:24:21;13.35;;;7.78;;
20014;SDS011;61787;42.022;23.078;2023-07-13T04:25:23;10.65;;;7.40;;
20014;SDS011;61787;42.022;23.078;2023-07-13T04:26:25;15.88;;;7.90;;
20014;SDS011;61787;42.022;23.078;2023-07-13T04:27:26;11.18;;;8.30;;
20014;SDS011;61787;42.022;23.078;2023-07-13T04:28:30;13.65;;;8.13;;
20014;SDS011;61787;42.022;23.078;2023-07-13T04:29:32;13.57;;;8.57;;
20014;SDS011;61787;42.022;23.078;2023-07-13T04:30:33;13.18;;;7.55;;
20014;SDS011;61787;42.022;23.078;2023-07-13T04:31:35;11.68;;;7.88;;
20014;SDS011;61787;42.022;23.078;2023-07-13T04:32:37;14.38;;;7.60;;
20014;SDS011;61787;42.022;23.078;2023-07-13T04:33:39;20.88;;;8.98;;
20014;SDS011;61787;42.022;23.078;2023-07-13T04:34:41;19.25;;;7.78;;
20014;SDS011;61787;42.022;23.078;2023-07-13T04:35:43;11.63;;;7.45;;
20014;SDS011;61787;42.022;23.078;2023-07-13T04:36:48;10.35;;;7.75;;
20014;SDS011;61787;42.022;23.078;2023-07-13T04:37:49;11.35;;;8.23;;
20014;SDS011;61787;42.022;23.078;2023-07-13T04:38:51;10.43;;;7.53;;
20014;SDS011;61787;42.022;23.078;2023-07-13T04:39:53;11.30;;;7.82;;
20014;SDS011;61787;42.022;23.078;2023-07-13T04:40:58;9.70;;;7.72;;
20014;SDS011;61787;42.022;23.078;2023-07-13T04:42:01;11.32;;;7.22;;
20014;SDS011;61787;42.022;23.078;2023-07-13T04:43:03;10.45;;;7.45;;
20014;SDS011;61787;42.022;23.078;2023-07-13T04:44:05;9.63;;;7.82;;
20014;SDS011;61787;42.022;23.078;2023-07-13T04:45:07;8.02;;;7.20;;
20014;SDS011;61787;42.022;23.078;2023-07-13T04:46:12;11.45;;;7.78;;
20014;SDS011;61787;42.022;23.078;2023-07-13T04:47:17;14.38;;;8.07;;
20014;SDS011;61787;42.022;23.078;2023-07-13T04:48:22;13.00;;;8.40;;
20014;SDS011;61787;42.022;23.078;2023-07-13T04:49:24;11.85;;;8.07;;
20014;SDS011;61787;42.022;23.078;2023-07-13T04:50:25;8.15;;;7.35;;
20014;SDS011;61787;42.022;23.078;2023-07-13T04:51:27;9.88;;;7.60;;
20014;SDS011;61787;42.022;23.078;2023-07-13T04:52:28;9.23;;;7.78;;
20014;SDS011;61787;42.022;23.078;2023-07-13T04:53:30;10.10;;;8.05;;
20014;SDS011;61787;42.022;23.078;2023-07-13T04:54:34;11.35;;;7.40;;
20014;SDS011;61787;42.022;23.078;2023-07-13T04:55:36;12.23;;;8.82;;
20014;SDS011;61787;42.022;23.078;2023-07-13T04:56:38;11.57;;;8.40;;
20014;SDS011;61787;42.022;23.078;2023-07-13T04:57:39;11.50;;;8.20;;
20014;SDS011;61787;42.022;23.078;2023-07-13T04:58:41;11.32;;;8.32;;
20014;SDS011;61787;42.022;23.078;2023-07-13T04:59:43;11.98;;;8.45;;
20014;SDS011;61787;42.022;23.078;2023-07-13T05:00:44;15.95;;;8.98;;
20014;SDS011;61787;42.022;23.078;2023-07-13T05:01:46;14.40;;;8.52;;
20014;SDS011;61787;42.022;23.078;2023-07-13T05:02:48;14.55;;;8.45;;
20014;SDS011;61787;42.022;23.078;2023-07-13T05:03:50;13.38;;;8.82;;
20014;SDS011;61787;42.022;23.078;2023-07-13T05:04:52;11.38;;;8.32;;
20014;SDS011;61787;42.022;23.078;2023-07-13T05:05:54;11.25;;;8.38;;
20014;SDS011;61787;42.022;23.078;2023-07-13T05:06:58;12.52;;;8.60;;
20014;SDS011;61787;42.022;23.078;2023-07-13T05:08:01;16.88;;;8.43;;
20014;SDS011;61787;42.022;23.078;2023-07-13T05:09:03;12.98;;;8.88;;
20014;SDS011;61787;42.022;23.078;2023-07-13T05:10:05;16.10;;;9.45;;
20014;SDS011;61787;42.022;23.078;2023-07-13T05:11:07;14.10;;;9.50;;
20014;SDS011;61787;42.022;23.078;2023-07-13T05:12:09;14.57;;;8.43;;
20014;SDS011;61787;42.022;23.078;2023-07-13T05:13:11;11.23;;;8.80;;
20014;SDS011;61787;42.022;23.078;2023-07-13T05:14:12;14.48;;;8.05;;
20014;SDS011;61787;42.022;23.078;2023-07-13T05:15:15;10.50;;;8.13;;
20014;SDS011;61787;42.022;23.078;2023-07-13T05:16:17;12.85;;;8.68;;
20014;SDS011;61787;42.022;23.078;2023-07-13T05:17:19;13.25;;;8.60;;
20014;SDS011;61787;42.022;23.078;2023-07-13T05:18:20;12.65;;;8.25;;
20014;SDS011;61787;42.022;23.078;2023-07-13T05:19:22;11.57;;;7.60;;
20014;SDS011;61787;42.022;23.078;2023-07-13T05:20:24;9.40;;;8.13;;
20014;SDS011;61787;42.022;23.078;2023-07-13T05:21:25;13.57;;;8.18;;
20014;SDS011;61787;42.022;23.078;2023-07-13T05:22:27;12.63;;;8.20;;
20014;SDS011;61787;42.022;23.078;2023-07-13T05:23:29;12.70;;;8.25;;
20014;SDS011;61787;42.022;23.078;2023-07-13T05:24:32;15.77;;;8.60;;
20014;SDS011;61787;42.022;23.078;2023-07-13T05:25:34;13.05;;;8.30;;
20014;SDS011;61787;42.022;23.078;2023-07-13T05:26:35;9.68;;;8.07;;
20014;SDS011;61787;42.022;23.078;2023-07-13T05:27:37;11.23;;;8.15;;
20014;SDS011;61787;42.022;23.078;2023-07-13T05:28:39;9.25;;;7.78;;
20014;SDS011;61787;42.022;23.078;2023-07-13T05:29:41;10.30;;;7.63;;
20014;SDS011;61787;42.022;23.078;2023-07-13T05:30:46;11.73;;;7.78;;
20014;SDS011;61787;42.022;23.078;2023-07-13T05:31:49;9.13;;;7.85;;
20014;SDS011;61787;42.022;23.078;2023-07-13T05:32:51;9.85;;;7.60;;
20014;SDS011;61787;42.022;23.078;2023-07-13T05:33:52;9.98;;;8.23;;
20014;SDS011;61787;42.022;23.078;2023-07-13T05:34:54;8.48;;;7.63;;
20014;SDS011;61787;42.022;23.078;2023-07-13T05:35:56;13.70;;;7.90;;
20014;SDS011;61787;42.022;23.078;2023-07-13T05:36:59;13.00;;;7.93;;
20014;SDS011;61787;42.022;23.078;2023-07-13T05:38:00;11.25;;;7.97;;
20014;SDS011;61787;42.022;23.078;2023-07-13T05:39:03;10.77;;;7.55;;
20014;SDS011;61787;42.022;23.078;2023-07-13T05:40:05;11.30;;;8.05;;
20014;SDS011;61787;42.022;23.078;2023-07-13T05:41:07;13.30;;;8.00;;
20014;SDS011;61787;42.022;23.078;2023-07-13T05:42:09;10.30;;;7.80;;
20014;SDS011;61787;42.022;23.078;2023-07-13T05:43:11;8.68;;;7.50;;
20014;SDS011;61787;42.022;23.078;2023-07-13T05:44:13;14.85;;;8.48;;
20014;SDS011;61787;42.022;23.078;2023-07-13T05:45:15;10.27;;;7.95;;
20014;SDS011;61787;42.022;23.078;2023-07-13T05:46:16;8.98;;;7.50;;
20014;SDS011;61787;42.022;23.078;2023-07-13T05:47:18;11.00;;;8.15;;
20014;SDS011;61787;42.022;23.078;2023-07-13T05:48:20;9.05;;;7.97;;
20014;SDS011;61787;42.022;23.078;2023-07-13T05:49:22;10.63;;;7.88;;
20014;SDS011;61787;42.022;23.078;2023-07-13T05:50:25;11.27;;;8.27;;
20014;SDS011;61787;42.022;23.078;2023-07-13T05:51:27;10.13;;;7.88;;
20014;SDS011;61787;42.022;23.078;2023-07-13T05:52:29;12.20;;;8.75;;
20014;SDS011;61787;42.022;23.078;2023-07-13T05:53:31;13.48;;;8.80;;
20014;SDS011;61787;42.022;23.078;2023-07-13T05:54:32;17.48;;;8.35;;
20014;SDS011;61787;42.022;23.078;2023-07-13T05:55:34;12.30;;;8.10;;
20014;SDS011;61787;42.022;23.078;2023-07-13T05:56:36;11.93;;;8.25;;
20014;SDS011;61787;42.022;23.078;2023-07-13T05:57:37;10.50;;;9.35;;
20014;SDS011;61787;42.022;23.078;2023-07-13T05:58:39;13.05;;;8.68;;
20014;SDS011;61787;42.022;23.078;2023-07-13T05:59:40;14.02;;;8.52;;
20014;SDS011;61787;42.022;23.078;2023-07-13T06:00:43;10.23;;;8.43;;
20014;SDS011;61787;42.022;23.078;2023-07-13T06:01:44;9.98;;;8.98;;
20014;SDS011;61787;42.022;23.078;2023-07-13T06:02:46;16.13;;;9.93;;
20014;SDS011;61787;42.022;23.078;2023-07-13T06:03:48;13.18;;;9.10;;
20014;SDS011;61787;42.022;23.078;2023-07-13T06:04:49;11.52;;;8.45;;
20014;SDS011;61787;42.022;23.078;2023-07-13T06:05:53;15.10;;;8.77;;
20014;SDS011;61787;42.022;23.078;2023-07-13T06:06:55;12.98;;;8.60;;
20014;SDS011;61787;42.022;23.078;2023-07-13T06:07:56;12.13;;;9.98;;
20014;SDS011;61787;42.022;23.078;2023-07-13T06:08:58;13.88;;;8.77;;
20014;SDS011;61787;42.022;23.078;2023-07-13T06:10:00;9.88;;;8.98;;